sensor_id;sensor_type;location;lat;lon;timestamp;pressure;altitude;pressure_sealevel;temperature;humidity
35226;BME280;21813;49.686;21.766;2023-02-28T00:04:23;99595.94;;;-3.10;100.00
35226;BME280;21813;49.686;21.766;2023-02-28T00:07:30;99585.78;;;-3.20;100.00
35226;BME280;21813;49.686;21.766;2023-02-28T00:10:01;99593.41;;;-3.18;100.00
35226;BME280;21813;49.686;21.766;2023-02-28T00:12:54;99595.97;;;-3.17;100.00
35226;BME280;21813;49.686;21.766;2023-02-28T00:15:24;99591.75;;;-3.19;100.00
35226;BME280;21813;49.686;21.766;2023-02-28T00:17:56;99577.31;;;-3.25;100.00
35226;BME280;21813;49.686;21.766;2023-02-28T00:20:24;99583.25;;;-3.21;100.00
35226;BME280;21813;49.686;21.766;2023-02-28T00:22:54;99578.16;;;-3.24;100.00
35226;BME280;21813;49.686;21.766;2023-02-28T00:25:45;99586.66;;;-3.25;100.00
35226;BME280;21813;49.686;21.766;2023-02-28T00:28:55;99581.59;;;-3.33;100.00
35226;BME280;21813;49.686;21.766;2023-02-28T00:35:09;99601.13;;;-3.32;100.00
35226;BME280;21813;49.686;21.766;2023-02-28T00:37:55;99604.53;;;-3.33;100.00
35226;BME280;21813;49.686;21.766;2023-02-28T00:40:29;99602.84;;;-3.34;100.00
35226;BME280;21813;49.686;21.766;2023-02-28T00:43:01;99602.84;;;-3.34;100.00
35226;BME280;21813;49.686;21.766;2023-02-28T00:45:43;99603.69;;;-3.36;100.00
35226;BME280;21813;49.686;21.766;2023-02-28T00:48:22;99593.53;;;-3.38;100.00
35226;BME280;21813;49.686;21.766;2023-02-28T00:50:50;99602.88;;;-3.46;100.00
35226;BME280;21813;49.686;21.766;2023-02-28T00:56:09;99608.00;;;-3.49;100.00
35226;BME280;21813;49.686;21.766;2023-02-28T00:58:35;99617.34;;;-3.45;100.00
35226;BME280;21813;49.686;21.766;2023-02-28T01:01:01;99617.34;;;-3.45;100.00
35226;BME280;21813;49.686;21.766;2023-02-28T01:03:30;99613.97;;;-3.47;100.00
35226;BME280;21813;49.686;21.766;2023-02-28T01:06:14;99613.97;;;-3.48;100.00
35226;BME280;21813;49.686;21.766;2023-02-28T01:08:50;99622.44;;;-3.48;100.00
35226;BME280;21813;49.686;21.766;2023-02-28T01:11:26;99614.81;;;-3.48;100.00
35226;BME280;21813;49.686;21.766;2023-02-28T01:13:59;99611.41;;;-3.50;100.00
35226;BME280;21813;49.686;21.766;2023-02-28T01:16:45;99616.50;;;-3.50;100.00
35226;BME280;21813;49.686;21.766;2023-02-28T01:19:46;99617.38;;;-3.52;100.00
35226;BME280;21813;49.686;21.766;2023-02-28T01:22:40;99617.38;;;-3.54;100.00
35226;BME280;21813;49.686;21.766;2023-02-28T01:25:34;99618.22;;;-3.55;100.00
35226;BME280;21813;49.686;21.766;2023-02-28T01:28:02;99614.81;;;-3.54;100.00
35226;BME280;21813;49.686;21.766;2023-02-28T01:33:31;99619.94;;;-3.59;100.00
35226;BME280;21813;49.686;21.766;2023-02-28T01:36:05;99618.25;;;-3.64;100.00
35226;BME280;21813;49.686;21.766;2023-02-28T01:38:36;99616.56;;;-3.62;100.00
35226;BME280;21813;49.686;21.766;2023-02-28T01:41:05;99608.06;;;-3.67;100.00
35226;BME280;21813;49.686;21.766;2023-02-28T01:43:39;99618.25;;;-3.67;100.00
35226;BME280;21813;49.686;21.766;2023-02-28T01:46:24;99625.03;;;-3.69;100.00
35226;BME280;21813;49.686;21.766;2023-02-28T01:49:16;99619.13;;;-3.73;100.00
35226;BME280;21813;49.686;21.766;2023-02-28T01:55:10;99606.41;;;-3.80;100.00
35226;BME280;21813;49.686;21.766;2023-02-28T01:57:46;99607.28;;;-3.80;100.00
35226;BME280;21813;49.686;21.766;2023-02-28T02:00:23;99601.31;;;-3.80;100.00
35226;BME280;21813;49.686;21.766;2023-02-28T02:03:09;99601.31;;;-3.80;100.00
35226;BME280;21813;49.686;21.766;2023-02-28T02:05:38;99582.69;;;-3.88;100.00
35226;BME280;21813;49.686;21.766;2023-02-28T02:08:40;99588.59;;;-3.86;100.00
35226;BME280;21813;49.686;21.766;2023-02-28T02:11:22;99591.13;;;-3.83;100.00
35226;BME280;21813;49.686;21.766;2023-02-28T02:17:16;99586.03;;;-3.88;100.00
35226;BME280;21813;49.686;21.766;2023-02-28T02:36:22;99579.31;;;-4.07;100.00
35226;BME280;21813;49.686;21.766;2023-02-28T02:39:05;99582.72;;;-4.04;100.00
35226;BME280;21813;49.686;21.766;2023-02-28T02:41:43;99575.94;;;-4.08;100.00
35226;BME280;21813;49.686;21.766;2023-02-28T02:47:10;99583.56;;;-4.11;100.00
35226;BME280;21813;49.686;21.766;2023-02-28T02:49:42;99585.28;;;-4.13;100.00
35226;BME280;21813;49.686;21.766;2023-02-28T02:52:23;99590.34;;;-4.11;100.00
35226;BME280;21813;49.686;21.766;2023-02-28T02:55:21;99585.25;;;-4.14;100.00
35226;BME280;21813;49.686;21.766;2023-02-28T02:57:59;99585.25;;;-4.16;100.00
35226;BME280;21813;49.686;21.766;2023-02-28T03:00:31;99586.94;;;-4.10;100.00
35226;BME280;21813;49.686;21.766;2023-02-28T03:03:34;99579.31;;;-4.15;100.00
35226;BME280;21813;49.686;21.766;2023-02-28T03:06:07;99573.38;;;-4.11;100.00
35226;BME280;21813;49.686;21.766;2023-02-28T03:08:37;99570.81;;;-4.11;100.00
35226;BME280;21813;49.686;21.766;2023-02-28T03:11:06;99571.69;;;-4.18;100.00
35226;BME280;21813;49.686;21.766;2023-02-28T03:31:29;99597.16;;;-4.24;100.00
35226;BME280;21813;49.686;21.766;2023-02-28T03:35:28;99590.38;;;-4.31;100.00
35226;BME280;21813;49.686;21.766;2023-02-28T03:39:02;99598.88;;;-4.26;100.00
35226;BME280;21813;49.686;21.766;2023-02-28T03:42:26;99614.13;;;-4.26;100.00
35226;BME280;21813;49.686;21.766;2023-02-28T03:45:13;99610.72;;;-4.28;100.00
35226;BME280;21813;49.686;21.766;2023-02-28T03:47:46;99598.84;;;-4.33;100.00
35226;BME280;21813;49.686;21.766;2023-02-28T03:50:45;99613.28;;;-4.34;100.00
35226;BME280;21813;49.686;21.766;2023-02-28T04:02:47;99629.41;;;-4.35;100.00
35226;BME280;21813;49.686;21.766;2023-02-28T04:05:32;99613.28;;;-4.40;100.00
35226;BME280;21813;49.686;21.766;2023-02-28T04:08:53;99616.69;;;-4.41;100.00
35226;BME280;21813;49.686;21.766;2023-02-28T04:11:58;99611.59;;;-4.44;100.00
35226;BME280;21813;49.686;21.766;2023-02-28T04:14:25;99616.69;;;-4.41;100.00
35226;BME280;21813;49.686;21.766;2023-02-28T04:17:22;99618.38;;;-4.40;100.00
35226;BME280;21813;49.686;21.766;2023-02-28T04:20:08;99613.28;;;-4.38;100.00
35226;BME280;21813;49.686;21.766;2023-02-28T04:22:55;99617.50;;;-4.39;100.00
35226;BME280;21813;49.686;21.766;2023-02-28T04:25:24;99611.59;;;-4.41;100.00
35226;BME280;21813;49.686;21.766;2023-02-28T04:27:52;99622.59;;;-4.37;100.00
35226;BME280;21813;49.686;21.766;2023-02-28T04:30:19;99614.97;;;-4.39;100.00
35226;BME280;21813;49.686;21.766;2023-02-28T04:32:45;99621.75;;;-4.36;100.00
35226;BME280;21813;49.686;21.766;2023-02-28T04:35:12;99617.50;;;-4.39;100.00
35226;BME280;21813;49.686;21.766;2023-02-28T04:37:40;99618.38;;;-4.37;100.00
35226;BME280;21813;49.686;21.766;2023-02-28T04:40:12;99612.44;;;-4.37;100.00
35226;BME280;21813;49.686;21.766;2023-02-28T04:42:37;99616.69;;;-4.35;100.00
35226;BME280;21813;49.686;21.766;2023-02-28T04:45:08;99623.47;;;-4.28;100.00
35226;BME280;21813;49.686;21.766;2023-02-28T04:47:54;99628.53;;;-4.25;100.00
35226;BME280;21813;49.686;21.766;2023-02-28T04:51:04;99616.66;;;-4.23;100.00
35226;BME280;21813;49.686;21.766;2023-02-28T04:53:38;99622.59;;;-4.22;100.00
35226;BME280;21813;49.686;21.766;2023-02-28T04:56:09;99611.59;;;-4.26;100.00
35226;BME280;21813;49.686;21.766;2023-02-28T04:58:38;99620.06;;;-4.24;100.00
35226;BME280;21813;49.686;21.766;2023-02-28T05:01:29;99612.41;;;-4.24;100.00
35226;BME280;21813;49.686;21.766;2023-02-28T05:04:11;99604.78;;;-4.24;100.00
35226;BME280;21813;49.686;21.766;2023-02-28T05:06:39;99609.88;;;-4.24;100.00
35226;BME280;21813;49.686;21.766;2023-02-28T05:09:09;99622.59;;;-4.18;100.00
35226;BME280;21813;49.686;21.766;2023-02-28T05:11:58;99611.59;;;-4.17;100.00
35226;BME280;21813;49.686;21.766;2023-02-28T05:14:51;99626.84;;;-4.14;100.00
35226;BME280;21813;49.686;21.766;2023-02-28T05:17:19;99617.50;;;-4.15;100.00
35226;BME280;21813;49.686;21.766;2023-02-28T05:19:47;99630.22;;;-4.09;100.00
35226;BME280;21813;49.686;21.766;2023-02-28T05:22:16;99622.59;;;-4.10;100.00
35226;BME280;21813;49.686;21.766;2023-02-28T05:24:44;99630.22;;;-4.06;100.00
35226;BME280;21813;49.686;21.766;2023-02-28T05:27:17;99629.38;;;-4.05;100.00
35226;BME280;21813;49.686;21.766;2023-02-28T05:29:48;99620.06;;;-4.09;100.00
35226;BME280;21813;49.686;21.766;2023-02-28T05:32:14;99634.44;;;-4.02;100.00
35226;BME280;21813;49.686;21.766;2023-02-28T05:38:15;99643.78;;;-3.94;100.00
35226;BME280;21813;49.686;21.766;2023-02-28T05:40:45;99647.19;;;-3.91;100.00
35226;BME280;21813;49.686;21.766;2023-02-28T05:43:32;99630.22;;;-3.93;100.00
35226;BME280;21813;49.686;21.766;2023-02-28T05:49:29;99648.88;;;-3.79;100.00
35226;BME280;21813;49.686;21.766;2023-02-28T05:51:57;99656.50;;;-3.76;100.00
35226;BME280;21813;49.686;21.766;2023-02-28T05:54:49;99651.38;;;-3.73;100.00
35226;BME280;21813;49.686;21.766;2023-02-28T05:57:39;99656.47;;;-3.66;100.00
35226;BME280;21813;49.686;21.766;2023-02-28T06:00:09;99670.88;;;-3.60;100.00
35226;BME280;21813;49.686;21.766;2023-02-28T06:03:19;99670.88;;;-3.54;100.00
35226;BME280;21813;49.686;21.766;2023-02-28T06:06:41;99678.47;;;-3.46;100.00
35226;BME280;21813;49.686;21.766;2023-02-28T06:09:38;99677.66;;;-3.44;100.00
35226;BME280;21813;49.686;21.766;2023-02-28T06:12:12;99696.31;;;-3.42;100.00
35226;BME280;21813;49.686;21.766;2023-02-28T06:14:40;99689.53;;;-3.46;100.00
35226;BME280;21813;49.686;21.766;2023-02-28T06:17:06;99689.53;;;-3.43;100.00
35226;BME280;21813;49.686;21.766;2023-02-28T06:19:38;99681.88;;;-3.40;100.00
35226;BME280;21813;49.686;21.766;2023-02-28T06:22:19;99678.44;;;-3.31;100.00
35226;BME280;21813;49.686;21.766;2023-02-28T06:25:10;99694.53;;;-3.13;100.00
35226;BME280;21813;49.686;21.766;2023-02-28T06:27:44;99697.88;;;-2.98;100.00
35226;BME280;21813;49.686;21.766;2023-02-28T06:30:13;99693.56;;;-2.86;100.00
35226;BME280;21813;49.686;21.766;2023-02-28T06:32:40;99699.47;;;-2.76;100.00
35226;BME280;21813;49.686;21.766;2023-02-28T06:35:06;99689.25;;;-2.76;100.00
35226;BME280;21813;49.686;21.766;2023-02-28T06:37:33;99691.75;;;-2.67;100.00
35226;BME280;21813;49.686;21.766;2023-02-28T06:39:59;99696.00;;;-2.66;100.00
35226;BME280;21813;49.686;21.766;2023-02-28T06:42:27;99701.13;;;-2.72;100.00
35226;BME280;21813;49.686;21.766;2023-02-28T06:44:55;99694.38;;;-2.79;100.00
35226;BME280;21813;49.686;21.766;2023-02-28T06:47:21;99689.31;;;-2.84;100.00
35226;BME280;21813;49.686;21.766;2023-02-28T06:49:47;99706.28;;;-2.81;100.00
35226;BME280;21813;49.686;21.766;2023-02-28T06:52:16;99701.22;;;-2.84;100.00
35226;BME280;21813;49.686;21.766;2023-02-28T06:54:42;99703.75;;;-2.86;100.00
35226;BME280;21813;49.686;21.766;2023-02-28T06:57:12;99689.31;;;-2.85;100.00
35226;BME280;21813;49.686;21.766;2023-02-28T06:59:38;99690.97;;;-2.81;100.00
35226;BME280;21813;49.686;21.766;2023-02-28T07:02:08;99692.72;;;-2.83;100.00
35226;BME280;21813;49.686;21.766;2023-02-28T07:04:36;99685.88;;;-2.81;100.00
35226;BME280;21813;49.686;21.766;2023-02-28T07:07:04;99685.88;;;-2.78;100.00
35226;BME280;21813;49.686;21.766;2023-02-28T07:09:29;99700.28;;;-2.71;100.00
35226;BME280;21813;49.686;21.766;2023-02-28T07:11:57;99688.38;;;-2.69;100.00
35226;BME280;21813;49.686;21.766;2023-02-28T07:14:23;99698.56;;;-2.68;100.00
35226;BME280;21813;49.686;21.766;2023-02-28T07:16:49;99701.13;;;-2.64;100.00
35226;BME280;21813;49.686;21.766;2023-02-28T07:19:15;99703.66;;;-2.68;100.00
35226;BME280;21813;49.686;21.766;2023-02-28T07:21:41;99697.72;;;-2.68;100.00
35226;BME280;21813;49.686;21.766;2023-02-28T07:24:07;99706.22;;;-2.66;100.00
35226;BME280;21813;49.686;21.766;2023-02-28T07:26:35;99704.50;;;-2.67;100.00
35226;BME280;21813;49.686;21.766;2023-02-28T07:29:02;99701.13;;;-2.69;100.00
35226;BME280;21813;49.686;21.766;2023-02-28T07:31:29;99696.03;;;-2.71;100.00
35226;BME280;21813;49.686;21.766;2023-02-28T07:33:54;99700.22;;;-2.62;100.00
35226;BME280;21813;49.686;21.766;2023-02-28T07:36:22;99701.09;;;-2.60;100.00
35226;BME280;21813;49.686;21.766;2023-02-28T07:38:48;99718.03;;;-2.51;100.00
35226;BME280;21813;49.686;21.766;2023-02-28T07:41:17;99711.22;;;-2.48;100.00
35226;BME280;21813;49.686;21.766;2023-02-28T07:43:43;99716.28;;;-2.42;100.00
35226;BME280;21813;49.686;21.766;2023-02-28T07:46:13;99713.72;;;-2.43;100.00
35226;BME280;21813;49.686;21.766;2023-02-28T07:48:40;99713.69;;;-2.39;100.00
35226;BME280;21813;49.686;21.766;2023-02-28T07:51:07;99731.53;;;-2.33;100.00
35226;BME280;21813;49.686;21.766;2023-02-28T07:53:33;99719.66;;;-2.37;100.00
35226;BME280;21813;49.686;21.766;2023-02-28T07:56:01;99729.88;;;-2.37;100.00
35226;BME280;21813;49.686;21.766;2023-02-28T07:58:28;99725.63;;;-2.36;100.00
35226;BME280;21813;49.686;21.766;2023-02-28T08:00:56;99722.16;;;-2.31;100.00
35226;BME280;21813;49.686;21.766;2023-02-28T08:03:23;99725.56;;;-2.27;100.00
35226;BME280;21813;49.686;21.766;2023-02-28T08:05:50;99734.88;;;-2.23;100.00
35226;BME280;21813;49.686;21.766;2023-02-28T08:08:19;99733.16;;;-2.19;100.00
35226;BME280;21813;49.686;21.766;2023-02-28T08:10:45;99727.22;;;-2.23;100.00
35226;BME280;21813;49.686;21.766;2023-02-28T08:13:11;99724.66;;;-2.26;100.00
35226;BME280;21813;49.686;21.766;2023-02-28T08:15:37;99726.41;;;-2.27;100.00
35226;BME280;21813;49.686;21.766;2023-02-28T08:18:05;99733.19;;;-2.26;100.00
35226;BME280;21813;49.686;21.766;2023-02-28T08:20:31;99724.69;;;-2.28;100.00
35226;BME280;21813;49.686;21.766;2023-02-28T08:22:58;99722.97;;;-2.26;100.00
35226;BME280;21813;49.686;21.766;2023-02-28T08:25:23;99725.50;;;-2.19;100.00
35226;BME280;21813;49.686;21.766;2023-02-28T08:27:51;99722.09;;;-2.20;100.00
35226;BME280;21813;49.686;21.766;2023-02-28T08:34:18;99728.81;;;-2.08;100.00
35226;BME280;21813;49.686;21.766;2023-02-28T08:36:45;99731.34;;;-2.05;100.00
35226;BME280;21813;49.686;21.766;2023-02-28T08:39:11;99730.47;;;-2.00;100.00
35226;BME280;21813;49.686;21.766;2023-02-28T08:41:38;99735.59;;;-2.04;100.00
35226;BME280;21813;49.686;21.766;2023-02-28T08:44:04;99720.28;;;-2.04;100.00
35226;BME280;21813;49.686;21.766;2023-02-28T08:46:30;99734.69;;;-1.97;100.00
35226;BME280;21813;49.686;21.766;2023-02-28T08:48:57;99728.75;;;-1.99;100.00
35226;BME280;21813;49.686;21.766;2023-02-28T08:51:28;99720.25;;;-2.01;100.00
35226;BME280;21813;49.686;21.766;2023-02-28T08:53:55;99734.66;;;-1.91;100.00
35226;BME280;21813;49.686;21.766;2023-02-28T08:56:22;99732.06;;;-1.88;100.00
35226;BME280;21813;49.686;21.766;2023-02-28T08:58:49;99732.91;;;-1.86;100.00
35226;BME280;21813;49.686;21.766;2023-02-28T09:01:35;99730.31;;;-1.82;100.00
35226;BME280;21813;49.686;21.766;2023-02-28T09:04:02;99737.09;;;-1.79;100.00
35226;BME280;21813;49.686;21.766;2023-02-28T09:06:29;99736.19;;;-1.75;100.00
35226;BME280;21813;49.686;21.766;2023-02-28T09:08:58;99734.50;;;-1.73;100.00
35226;BME280;21813;49.686;21.766;2023-02-28T09:15:10;99733.50;;;-1.58;100.00
35226;BME280;21813;49.686;21.766;2023-02-28T09:17:38;99738.59;;;-1.54;100.00
35226;BME280;21813;49.686;21.766;2023-02-28T09:20:05;99737.69;;;-1.50;100.00
35226;BME280;21813;49.686;21.766;2023-02-28T09:22:35;99731.69;;;-1.47;100.00
35226;BME280;21813;49.686;21.766;2023-02-28T09:25:00;99729.13;;;-1.46;100.00
35226;BME280;21813;49.686;21.766;2023-02-28T09:27:28;99723.97;;;-1.40;100.00
35226;BME280;21813;49.686;21.766;2023-02-28T09:29:53;99727.38;;;-1.41;100.00
35226;BME280;21813;49.686;21.766;2023-02-28T09:32:21;99726.53;;;-1.40;100.00
35226;BME280;21813;49.686;21.766;2023-02-28T09:34:46;99731.53;;;-1.34;100.00
35226;BME280;21813;49.686;21.766;2023-02-28T09:37:14;99720.47;;;-1.34;100.00
35226;BME280;21813;49.686;21.766;2023-02-28T09:39:40;99728.09;;;-1.28;100.00
35226;BME280;21813;49.686;21.766;2023-02-28T09:42:18;99726.44;;;-1.34;100.00
35226;BME280;21813;49.686;21.766;2023-02-28T09:44:47;99727.22;;;-1.28;100.00
35226;BME280;21813;49.686;21.766;2023-02-28T09:52:49;99727.03;;;-1.10;100.00
35226;BME280;21813;49.686;21.766;2023-02-28T09:55:33;99730.38;;;-1.05;100.00
35226;BME280;21813;49.686;21.766;2023-02-28T09:58:03;99723.56;;;-1.06;100.00
35226;BME280;21813;49.686;21.766;2023-02-28T10:00:33;99720.94;;;-0.99;100.00
35226;BME280;21813;49.686;21.766;2023-02-28T10:05:55;99730.28;;;-0.96;100.00
35226;BME280;21813;49.686;21.766;2023-02-28T10:08:30;99726.06;;;-1.00;99.62
35226;BME280;21813;49.686;21.766;2023-02-28T10:11:06;99731.16;;;-0.97;100.00
35226;BME280;21813;49.686;21.766;2023-02-28T10:19:06;99723.28;;;-0.79;99.27
35226;BME280;21813;49.686;21.766;2023-02-28T10:21:38;99717.25;;;-0.75;98.96
35226;BME280;21813;49.686;21.766;2023-02-28T10:24:32;99711.16;;;-0.68;98.13
35226;BME280;21813;49.686;21.766;2023-02-28T10:27:10;99715.38;;;-0.64;98.68
35226;BME280;21813;49.686;21.766;2023-02-28T10:29:40;99714.50;;;-0.63;97.42
35226;BME280;21813;49.686;21.766;2023-02-28T10:32:11;99703.41;;;-0.63;97.37
35226;BME280;21813;49.686;21.766;2023-02-28T10:34:38;99700.91;;;-0.65;97.56
35226;BME280;21813;49.686;21.766;2023-02-28T10:37:04;99694.94;;;-0.65;98.31
35226;BME280;21813;49.686;21.766;2023-02-28T10:39:46;99693.97;;;-0.60;98.14
35226;BME280;21813;49.686;21.766;2023-02-28T10:42:24;99699.88;;;-0.55;97.74
35226;BME280;21813;49.686;21.766;2023-02-28T10:48:27;99687.09;;;-0.55;96.42
35226;BME280;21813;49.686;21.766;2023-02-28T10:53:14;99693.78;;;-0.45;97.25
35226;BME280;21813;49.686;21.766;2023-02-28T10:55:41;99688.56;;;-0.38;97.27
35226;BME280;21813;49.686;21.766;2023-02-28T10:58:20;99691.84;;;-0.30;96.86
35226;BME280;21813;49.686;21.766;2023-02-28T11:00:46;99687.53;;;-0.27;95.75
35226;BME280;21813;49.686;21.766;2023-02-28T11:03:32;99681.47;;;-0.21;95.56
35226;BME280;21813;49.686;21.766;2023-02-28T11:06:05;99678.81;;;-0.15;95.63
35226;BME280;21813;49.686;21.766;2023-02-28T11:08:32;99683.81;;;-0.08;95.19
35226;BME280;21813;49.686;21.766;2023-02-28T11:11:02;99678.59;;;-0.02;94.33
35226;BME280;21813;49.686;21.766;2023-02-28T11:13:35;99668.28;;;0.02;94.77
35226;BME280;21813;49.686;21.766;2023-02-28T11:16:08;99677.69;;;0.01;94.16
35226;BME280;21813;49.686;21.766;2023-02-28T11:18:50;99675.91;;;0.06;94.20
35226;BME280;21813;49.686;21.766;2023-02-28T11:21:24;99671.56;;;0.10;93.62
35226;BME280;21813;49.686;21.766;2023-02-28T11:23:54;99676.59;;;0.16;93.49
35226;BME280;21813;49.686;21.766;2023-02-28T11:26:45;99673.97;;;0.19;93.59
35226;BME280;21813;49.686;21.766;2023-02-28T11:29:25;99677.38;;;0.19;93.12
35226;BME280;21813;49.686;21.766;2023-02-28T11:34:36;99675.47;;;0.30;92.74
35226;BME280;21813;49.686;21.766;2023-02-28T11:37:04;99671.22;;;0.31;93.09
35226;BME280;21813;49.686;21.766;2023-02-28T11:39:32;99675.41;;;0.33;92.38
35226;BME280;21813;49.686;21.766;2023-02-28T11:53:48;99662.19;;;0.56;91.00
35226;BME280;21813;49.686;21.766;2023-02-28T11:56:36;99665.75;;;0.48;91.06
35226;BME280;21813;49.686;21.766;2023-02-28T11:59:42;99663.06;;;0.55;92.36
35226;BME280;21813;49.686;21.766;2023-02-28T12:02:30;99656.91;;;0.64;91.37
35226;BME280;21813;49.686;21.766;2023-02-28T12:10:54;99661.81;;;0.74;90.89
35226;BME280;21813;49.686;21.766;2023-02-28T12:13:32;99650.75;;;0.72;90.78
35226;BME280;21813;49.686;21.766;2023-02-28T12:18:56;99646.56;;;0.68;90.16
35226;BME280;21813;49.686;21.766;2023-02-28T12:24:40;99647.28;;;0.75;90.74
35226;BME280;21813;49.686;21.766;2023-02-28T12:27:16;99637.75;;;0.80;90.93
35226;BME280;21813;49.686;21.766;2023-02-28T12:29:50;99635.19;;;0.80;89.52
35226;BME280;21813;49.686;21.766;2023-02-28T12:32:30;99633.50;;;0.79;89.86
35226;BME280;21813;49.686;21.766;2023-02-28T12:37:35;99629.28;;;0.78;89.34
35226;BME280;21813;49.686;21.766;2023-02-28T12:40:25;99621.59;;;0.76;89.56
35226;BME280;21813;49.686;21.766;2023-02-28T12:43:05;99627.47;;;0.81;89.74
35226;BME280;21813;49.686;21.766;2023-02-28T12:45:43;99629.00;;;0.90;90.23
35226;BME280;21813;49.686;21.766;2023-02-28T12:48:17;99626.25;;;0.99;91.01
35226;BME280;21813;49.686;21.766;2023-02-28T12:50:45;99627.88;;;1.03;89.09
35226;BME280;21813;49.686;21.766;2023-02-28T13:01:20;99614.09;;;1.07;89.13
35226;BME280;21813;49.686;21.766;2023-02-28T13:06:57;99619.66;;;1.26;90.87
35226;BME280;21813;49.686;21.766;2023-02-28T13:09:26;99616.13;;;1.31;89.29
35226;BME280;21813;49.686;21.766;2023-02-28T13:11:53;99616.03;;;1.34;88.80
35226;BME280;21813;49.686;21.766;2023-02-28T13:14:34;99616.78;;;1.40;88.41
35226;BME280;21813;49.686;21.766;2023-02-28T13:24:56;99604.03;;;1.37;87.74
35226;BME280;21813;49.686;21.766;2023-02-28T13:27:23;99604.03;;;1.35;88.04
35226;BME280;21813;49.686;21.766;2023-02-28T13:29:52;99593.84;;;1.33;88.41
35226;BME280;21813;49.686;21.766;2023-02-28T13:42:47;99595.59;;;1.30;87.83
35226;BME280;21813;49.686;21.766;2023-02-28T13:45:25;99593.03;;;1.30;87.82
35226;BME280;21813;49.686;21.766;2023-02-28T13:47:52;99589.56;;;1.32;88.40
35226;BME280;21813;49.686;21.766;2023-02-28T13:56:23;99570.50;;;1.43;87.09
35226;BME280;21813;49.686;21.766;2023-02-28T14:01:57;99572.75;;;1.55;87.46
35226;BME280;21813;49.686;21.766;2023-02-28T14:07:02;99561.00;;;1.46;86.66
35226;BME280;21813;49.686;21.766;2023-02-28T14:09:34;99565.31;;;1.44;85.68
35226;BME280;21813;49.686;21.766;2023-02-28T14:17:56;99556.84;;;1.41;84.72
35226;BME280;21813;49.686;21.766;2023-02-28T14:20:26;99554.25;;;1.42;84.05
35226;BME280;21813;49.686;21.766;2023-02-28T14:31:35;99559.28;;;1.45;85.47
35226;BME280;21813;49.686;21.766;2023-02-28T14:36:48;99556.84;;;1.41;84.95
35226;BME280;21813;49.686;21.766;2023-02-28T14:39:22;99559.31;;;1.44;85.15
35226;BME280;21813;49.686;21.766;2023-02-28T14:42:01;99555.97;;;1.42;85.13
35226;BME280;21813;49.686;21.766;2023-02-28T14:44:32;99561.06;;;1.43;85.48
35226;BME280;21813;49.686;21.766;2023-02-28T14:47:00;99557.72;;;1.40;84.67
35226;BME280;21813;49.686;21.766;2023-02-28T14:49:43;99563.66;;;1.42;84.69
35226;BME280;21813;49.686;21.766;2023-02-28T14:53:01;99561.31;;;1.32;85.23
35226;BME280;21813;49.686;21.766;2023-02-28T14:55:35;99553.63;;;1.32;85.53
35226;BME280;21813;49.686;21.766;2023-02-28T14:58:03;99552.78;;;1.30;85.22
35226;BME280;21813;49.686;21.766;2023-02-28T15:00:51;99563.13;;;1.29;85.29
35226;BME280;21813;49.686;21.766;2023-02-28T15:03:31;99564.00;;;1.28;85.50
35226;BME280;21813;49.686;21.766;2023-02-28T15:06:00;99557.34;;;1.19;85.17
35226;BME280;21813;49.686;21.766;2023-02-28T15:08:28;99557.34;;;1.19;85.61
35226;BME280;21813;49.686;21.766;2023-02-28T15:10:58;99558.31;;;1.15;85.23
35226;BME280;21813;49.686;21.766;2023-02-28T15:13:39;99544.72;;;1.10;85.58
35226;BME280;21813;49.686;21.766;2023-02-28T15:16:11;99548.97;;;1.11;84.48
35226;BME280;21813;49.686;21.766;2023-02-28T15:21:09;99550.66;;;1.12;84.27
35226;BME280;21813;49.686;21.766;2023-02-28T15:23:38;99548.28;;;1.05;84.19
35226;BME280;21813;49.686;21.766;2023-02-28T15:26:13;99554.16;;;1.08;84.51
35226;BME280;21813;49.686;21.766;2023-02-28T15:28:40;99548.19;;;1.08;84.90
35226;BME280;21813;49.686;21.766;2023-02-28T15:31:40;99552.47;;;1.07;84.58
35226;BME280;21813;49.686;21.766;2023-02-28T15:34:06;99549.97;;;1.06;85.16
35226;BME280;21813;49.686;21.766;2023-02-28T15:36:34;99558.56;;;1.03;85.32
35226;BME280;21813;49.686;21.766;2023-02-28T15:39:17;99559.44;;;1.02;85.00
35226;BME280;21813;49.686;21.766;2023-02-28T15:41:43;99567.13;;;1.02;85.09
35226;BME280;21813;49.686;21.766;2023-02-28T15:44:33;99558.72;;;0.97;85.04
35226;BME280;21813;49.686;21.766;2023-02-28T15:47:12;99551.94;;;0.93;85.04
35226;BME280;21813;49.686;21.766;2023-02-28T15:49:46;99565.69;;;0.92;85.89
35226;BME280;21813;49.686;21.766;2023-02-28T15:52:21;99575.22;;;0.84;85.02
35226;BME280;21813;49.686;21.766;2023-02-28T15:54:49;99573.56;;;0.83;86.00
35226;BME280;21813;49.686;21.766;2023-02-28T15:57:27;99565.13;;;0.78;86.26
35226;BME280;21813;49.686;21.766;2023-02-28T15:59:56;99563.50;;;0.74;86.41
35226;BME280;21813;49.686;21.766;2023-02-28T16:02:36;99568.63;;;0.74;86.95
35226;BME280;21813;49.686;21.766;2023-02-28T16:07:29;99585.78;;;0.72;86.02
35226;BME280;21813;49.686;21.766;2023-02-28T16:09:54;99590.06;;;0.70;86.13
35226;BME280;21813;49.686;21.766;2023-02-28T16:12:27;99583.28;;;0.69;86.65
35226;BME280;21813;49.686;21.766;2023-02-28T16:14:54;99590.97;;;0.69;87.01
35226;BME280;21813;49.686;21.766;2023-02-28T16:17:24;99580.72;;;0.69;86.24
35226;BME280;21813;49.686;21.766;2023-02-28T16:19:50;99584.25;;;0.62;85.99
35226;BME280;21813;49.686;21.766;2023-02-28T16:22:16;99583.47;;;0.60;86.72
35226;BME280;21813;49.686;21.766;2023-02-28T16:24:42;99582.63;;;0.58;87.45
35226;BME280;21813;49.686;21.766;2023-02-28T16:27:15;99586.03;;;0.60;86.78
35226;BME280;21813;49.686;21.766;2023-02-28T16:29:42;99582.63;;;0.58;87.47
35226;BME280;21813;49.686;21.766;2023-02-28T16:32:12;99587.84;;;0.55;87.74
35226;BME280;21813;49.686;21.766;2023-02-28T16:34:39;99589.66;;;0.50;87.72
35226;BME280;21813;49.686;21.766;2023-02-28T16:37:13;99591.34;;;0.51;87.55